sensor_id;sensor_type;location;lat;lon;timestamp;P1;durP1;ratioP1;P2;durP2;ratioP2
48651;SDS011;34442;52.362;-1.302;2023-04-06T00:01:24;2.58;;;1.23;;
48651;SDS011;34442;52.362;-1.302;2023-04-06T00:03:50;2.00;;;1.35;;
48651;SDS011;34442;52.362;-1.302;2023-04-06T00:06:15;1.38;;;1.00;;
48651;SDS011;34442;52.362;-1.302;2023-04-06T00:08:41;2.88;;;1.67;;
48651;SDS011;34442;52.362;-1.302;2023-04-06T00:11:09;2.78;;;1.40;;
48651;SDS011;34442;52.362;-1.302;2023-04-06T00:13:35;2.75;;;1.42;;
48651;SDS011;34442;52.362;-1.302;2023-04-06T00:16:00;3.10;;;1.70;;
48651;SDS011;34442;52.362;-1.302;2023-04-06T00:18:26;2.75;;;1.30;;
48651;SDS011;34442;52.362;-1.302;2023-04-06T00:20:51;2.35;;;1.30;;
48651;SDS011;34442;52.362;-1.302;2023-04-06T00:23:17;2.70;;;1.30;;
48651;SDS011;34442;52.362;-1.302;2023-04-06T00:25:42;1.77;;;1.20;;
48651;SDS011;34442;52.362;-1.302;2023-04-06T00:28:08;2.25;;;1.20;;
48651;SDS011;34442;52.362;-1.302;2023-04-06T00:30:33;1.95;;;1.20;;
48651;SDS011;34442;52.362;-1.302;2023-04-06T00:32:58;2.55;;;1.48;;
48651;SDS011;34442;52.362;-1.302;2023-04-06T00:35:24;3.15;;;1.58;;
48651;SDS011;34442;52.362;-1.302;2023-04-06T00:37:49;2.38;;;1.20;;
48651;SDS011;34442;52.362;-1.302;2023-04-06T00:40:15;1.55;;;1.00;;
48651;SDS011;34442;52.362;-1.302;2023-04-06T00:42:41;2.17;;;1.38;;
48651;SDS011;34442;52.362;-1.302;2023-04-06T00:45:07;2.78;;;1.40;;
48651;SDS011;34442;52.362;-1.302;2023-04-06T00:47:33;1.95;;;1.15;;
48651;SDS011;34442;52.362;-1.302;2023-04-06T00:49:58;2.80;;;1.27;;
48651;SDS011;34442;52.362;-1.302;2023-04-06T00:52:24;1.90;;;1.20;;
48651;SDS011;34442;52.362;-1.302;2023-04-06T00:54:49;2.45;;;1.27;;
48651;SDS011;34442;52.362;-1.302;2023-04-06T00:57:15;2.08;;;1.27;;
48651;SDS011;34442;52.362;-1.302;2023-04-06T00:59:41;2.45;;;1.40;;
48651;SDS011;34442;52.362;-1.302;2023-04-06T01:02:08;2.95;;;1.60;;
48651;SDS011;34442;52.362;-1.302;2023-04-06T01:04:33;2.75;;;1.45;;
48651;SDS011;34442;52.362;-1.302;2023-04-06T01:06:59;2.20;;;1.40;;
48651;SDS011;34442;52.362;-1.302;2023-04-06T01:09:26;2.45;;;1.10;;
48651;SDS011;34442;52.362;-1.302;2023-04-06T01:11:52;2.40;;;1.35;;
48651;SDS011;34442;52.362;-1.302;2023-04-06T01:14:18;2.78;;;1.48;;
48651;SDS011;34442;52.362;-1.302;2023-04-06T01:16:43;1.90;;;1.17;;
48651;SDS011;34442;52.362;-1.302;2023-04-06T01:19:10;2.35;;;1.45;;
48651;SDS011;34442;52.362;-1.302;2023-04-06T01:21:36;2.30;;;1.23;;
48651;SDS011;34442;52.362;-1.302;2023-04-06T01:24:02;2.75;;;1.58;;
48651;SDS011;34442;52.362;-1.302;2023-04-06T01:26:29;2.83;;;1.33;;
48651;SDS011;34442;52.362;-1.302;2023-04-06T01:28:54;2.80;;;1.58;;
48651;SDS011;34442;52.362;-1.302;2023-04-06T01:31:20;2.78;;;1.50;;
48651;SDS011;34442;52.362;-1.302;2023-04-06T01:33:46;2.28;;;1.30;;
48651;SDS011;34442;52.362;-1.302;2023-04-06T01:36:12;2.50;;;1.25;;
48651;SDS011;34442;52.362;-1.302;2023-04-06T01:38:38;3.25;;;1.63;;
48651;SDS011;34442;52.362;-1.302;2023-04-06T01:41:03;2.80;;;1.48;;
48651;SDS011;34442;52.362;-1.302;2023-04-06T01:43:28;2.25;;;1.20;;
48651;SDS011;34442;52.362;-1.302;2023-04-06T01:45:54;2.67;;;1.55;;
48651;SDS011;34442;52.362;-1.302;2023-04-06T01:48:20;4.57;;;2.00;;
48651;SDS011;34442;52.362;-1.302;2023-04-06T01:50:45;2.38;;;1.42;;
48651;SDS011;34442;52.362;-1.302;2023-04-06T01:53:11;2.38;;;1.38;;
48651;SDS011;34442;52.362;-1.302;2023-04-06T01:55:36;2.22;;;1.20;;
48651;SDS011;34442;52.362;-1.302;2023-04-06T01:58:02;3.28;;;1.55;;
48651;SDS011;34442;52.362;-1.302;2023-04-06T02:00:28;2.17;;;1.40;;
48651;SDS011;34442;52.362;-1.302;2023-04-06T02:02:53;2.50;;;1.25;;
48651;SDS011;34442;52.362;-1.302;2023-04-06T02:05:19;2.47;;;1.40;;
48651;SDS011;34442;52.362;-1.302;2023-04-06T02:07:45;2.55;;;1.35;;
48651;SDS011;34442;52.362;-1.302;2023-04-06T02:10:11;1.42;;;1.10;;
48651;SDS011;34442;52.362;-1.302;2023-04-06T02:12:38;1.83;;;1.10;;
48651;SDS011;34442;52.362;-1.302;2023-04-06T02:15:04;2.05;;;1.30;;
48651;SDS011;34442;52.362;-1.302;2023-04-06T02:17:29;2.92;;;1.33;;
48651;SDS011;34442;52.362;-1.302;2023-04-06T02:19:55;1.85;;;1.00;;
48651;SDS011;34442;52.362;-1.302;2023-04-06T02:22:20;2.40;;;1.23;;
48651;SDS011;34442;52.362;-1.302;2023-04-06T02:24:46;1.67;;;1.13;;
48651;SDS011;34442;52.362;-1.302;2023-04-06T02:27:11;2.85;;;1.50;;
48651;SDS011;34442;52.362;-1.302;2023-04-06T02:29:38;2.53;;;1.20;;
48651;SDS011;34442;52.362;-1.302;2023-04-06T02:32:03;2.83;;;1.30;;
48651;SDS011;34442;52.362;-1.302;2023-04-06T02:34:29;3.53;;;1.65;;
48651;SDS011;34442;52.362;-1.302;2023-04-06T02:36:55;2.85;;;1.40;;
48651;SDS011;34442;52.362;-1.302;2023-04-06T02:39:20;3.30;;;1.67;;
48651;SDS011;34442;52.362;-1.302;2023-04-06T02:41:46;2.65;;;1.38;;
48651;SDS011;34442;52.362;-1.302;2023-04-06T02:44:11;3.25;;;1.50;;
48651;SDS011;34442;52.362;-1.302;2023-04-06T02:46:36;3.08;;;1.60;;
48651;SDS011;34442;52.362;-1.302;2023-04-06T02:49:02;3.90;;;1.98;;
48651;SDS011;34442;52.362;-1.302;2023-04-06T02:51:27;3.53;;;2.10;;
48651;SDS011;34442;52.362;-1.302;2023-04-06T02:53:53;3.60;;;1.67;;
48651;SDS011;34442;52.362;-1.302;2023-04-06T02:56:18;2.63;;;1.50;;
48651;SDS011;34442;52.362;-1.302;2023-04-06T02:58:45;4.22;;;1.98;;
48651;SDS011;34442;52.362;-1.302;2023-04-06T03:01:11;4.30;;;1.92;;
48651;SDS011;34442;52.362;-1.302;2023-04-06T03:03:36;3.58;;;1.77;;
48651;SDS011;34442;52.362;-1.302;2023-04-06T03:06:02;3.72;;;2.15;;
48651;SDS011;34442;52.362;-1.302;2023-04-06T03:08:28;5.22;;;2.58;;
48651;SDS011;34442;52.362;-1.302;2023-04-06T03:10:53;3.20;;;1.77;;
48651;SDS011;34442;52.362;-1.302;2023-04-06T03:13:19;3.50;;;1.92;;
48651;SDS011;34442;52.362;-1.302;2023-04-06T03:15:44;4.43;;;2.10;;
48651;SDS011;34442;52.362;-1.302;2023-04-06T03:18:09;3.22;;;1.75;;
48651;SDS011;34442;52.362;-1.302;2023-04-06T03:20:35;4.35;;;1.90;;
48651;SDS011;34442;52.362;-1.302;2023-04-06T03:23:00;4.28;;;1.98;;
48651;SDS011;34442;52.362;-1.302;2023-04-06T03:25:27;3.95;;;1.90;;
48651;SDS011;34442;52.362;-1.302;2023-04-06T03:27:53;4.03;;;1.85;;
48651;SDS011;34442;52.362;-1.302;2023-04-06T03:30:18;3.75;;;2.00;;
48651;SDS011;34442;52.362;-1.302;2023-04-06T03:32:44;4.10;;;2.13;;
48651;SDS011;34442;52.362;-1.302;2023-04-06T03:35:10;4.85;;;2.65;;
48651;SDS011;34442;52.362;-1.302;2023-04-06T03:37:35;3.92;;;2.05;;
48651;SDS011;34442;52.362;-1.302;2023-04-06T03:40:01;5.30;;;3.30;;
48651;SDS011;34442;52.362;-1.302;2023-04-06T03:42:27;5.72;;;3.00;;
48651;SDS011;34442;52.362;-1.302;2023-04-06T03:44:53;5.57;;;2.70;;
48651;SDS011;34442;52.362;-1.302;2023-04-06T03:47:18;4.38;;;2.08;;
48651;SDS011;34442;52.362;-1.302;2023-04-06T03:49:44;6.10;;;2.40;;
48651;SDS011;34442;52.362;-1.302;2023-04-06T03:52:09;5.18;;;2.83;;
48651;SDS011;34442;52.362;-1.302;2023-04-06T03:54:35;3.90;;;2.42;;
48651;SDS011;34442;52.362;-1.302;2023-04-06T03:57:01;3.72;;;1.98;;
48651;SDS011;34442;52.362;-1.302;2023-04-06T03:59:26;4.43;;;2.05;;
48651;SDS011;34442;52.362;-1.302;2023-04-06T04:01:52;4.20;;;2.20;;
48651;SDS011;34442;52.362;-1.302;2023-04-06T04:04:17;3.92;;;2.00;;
48651;SDS011;34442;52.362;-1.302;2023-04-06T04:06:43;4.00;;;2.00;;
48651;SDS011;34442;52.362;-1.302;2023-04-06T04:09:08;3.72;;;1.80;;
48651;SDS011;34442;52.362;-1.302;2023-04-06T04:11:34;4.55;;;1.95;;
48651;SDS011;34442;52.362;-1.302;2023-04-06T04:13:59;3.58;;;1.80;;
48651;SDS011;34442;52.362;-1.302;2023-04-06T04:16:24;3.90;;;1.90;;
48651;SDS011;34442;52.362;-1.302;2023-04-06T04:18:50;3.38;;;1.80;;
48651;SDS011;34442;52.362;-1.302;2023-04-06T04:21:15;3.28;;;1.58;;
48651;SDS011;34442;52.362;-1.302;2023-04-06T04:23:41;3.80;;;1.70;;
48651;SDS011;34442;52.362;-1.302;2023-04-06T04:26:06;2.60;;;1.35;;
48651;SDS011;34442;52.362;-1.302;2023-04-06T04:28:32;4.05;;;1.90;;
48651;SDS011;34442;52.362;-1.302;2023-04-06T04:30:57;3.38;;;1.90;;
48651;SDS011;34442;52.362;-1.302;2023-04-06T04:33:22;4.28;;;2.28;;
48651;SDS011;34442;52.362;-1.302;2023-04-06T04:35:48;3.00;;;1.70;;
48651;SDS011;34442;52.362;-1.302;2023-04-06T04:38:13;3.45;;;1.80;;
48651;SDS011;34442;52.362;-1.302;2023-04-06T04:40:39;3.45;;;1.73;;
48651;SDS011;34442;52.362;-1.302;2023-04-06T04:43:04;2.83;;;1.52;;
48651;SDS011;34442;52.362;-1.302;2023-04-06T04:45:29;4.95;;;2.80;;
48651;SDS011;34442;52.362;-1.302;2023-04-06T04:47:55;4.18;;;2.10;;
48651;SDS011;34442;52.362;-1.302;2023-04-06T04:50:20;2.85;;;1.70;;
48651;SDS011;34442;52.362;-1.302;2023-04-06T04:52:46;4.65;;;2.50;;
48651;SDS011;34442;52.362;-1.302;2023-04-06T04:55:11;3.40;;;1.70;;
48651;SDS011;34442;52.362;-1.302;2023-04-06T04:57:37;3.78;;;1.90;;
48651;SDS011;34442;52.362;-1.302;2023-04-06T05:00:02;3.88;;;1.98;;
48651;SDS011;34442;52.362;-1.302;2023-04-06T05:02:28;7.10;;;3.20;;
48651;SDS011;34442;52.362;-1.302;2023-04-06T05:04:53;3.78;;;2.00;;
48651;SDS011;34442;52.362;-1.302;2023-04-06T05:07:19;4.20;;;2.25;;
48651;SDS011;34442;52.362;-1.302;2023-04-06T05:09:45;5.05;;;2.70;;
48651;SDS011;34442;52.362;-1.302;2023-04-06T05:12:11;4.07;;;2.10;;
48651;SDS011;34442;52.362;-1.302;2023-04-06T05:14:37;4.53;;;2.20;;
48651;SDS011;34442;52.362;-1.302;2023-04-06T05:17:02;5.50;;;2.88;;
48651;SDS011;34442;52.362;-1.302;2023-04-06T05:19:27;4.85;;;2.42;;
48651;SDS011;34442;52.362;-1.302;2023-04-06T05:21:53;4.70;;;2.55;;
48651;SDS011;34442;52.362;-1.302;2023-04-06T05:24:18;4.75;;;2.15;;
48651;SDS011;34442;52.362;-1.302;2023-04-06T05:26:44;4.88;;;2.33;;
48651;SDS011;34442;52.362;-1.302;2023-04-06T05:29:10;4.75;;;2.33;;
48651;SDS011;34442;52.362;-1.302;2023-04-06T05:31:35;4.55;;;2.40;;
48651;SDS011;34442;52.362;-1.302;2023-04-06T05:34:01;3.50;;;1.60;;
48651;SDS011;34442;52.362;-1.302;2023-04-06T05:36:26;3.85;;;2.00;;
48651;SDS011;34442;52.362;-1.302;2023-04-06T05:38:52;3.75;;;2.08;;
48651;SDS011;34442;52.362;-1.302;2023-04-06T05:41:18;3.47;;;1.60;;
48651;SDS011;34442;52.362;-1.302;2023-04-06T05:43:43;3.53;;;1.98;;
48651;SDS011;34442;52.362;-1.302;2023-04-06T05:46:09;3.90;;;2.00;;
48651;SDS011;34442;52.362;-1.302;2023-04-06T05:48:35;4.70;;;2.22;;
48651;SDS011;34442;52.362;-1.302;2023-04-06T05:51:01;3.60;;;1.55;;
48651;SDS011;34442;52.362;-1.302;2023-04-06T05:53:27;4.95;;;2.30;;
48651;SDS011;34442;52.362;-1.302;2023-04-06T05:55:53;3.53;;;1.60;;
48651;SDS011;34442;52.362;-1.302;2023-04-06T05:58:19;3.30;;;1.90;;
48651;SDS011;34442;52.362;-1.302;2023-04-06T06:00:45;3.88;;;1.73;;
48651;SDS011;34442;52.362;-1.302;2023-04-06T06:03:11;5.03;;;2.28;;
48651;SDS011;34442;52.362;-1.302;2023-04-06T06:05:37;3.85;;;1.83;;
48651;SDS011;34442;52.362;-1.302;2023-04-06T06:08:02;4.55;;;2.25;;
48651;SDS011;34442;52.362;-1.302;2023-04-06T06:10:28;3.67;;;1.88;;
48651;SDS011;34442;52.362;-1.302;2023-04-06T06:12:53;4.47;;;2.03;;
48651;SDS011;34442;52.362;-1.302;2023-04-06T06:15:18;4.18;;;2.40;;
48651;SDS011;34442;52.362;-1.302;2023-04-06T06:17:44;4.22;;;2.22;;
48651;SDS011;34442;52.362;-1.302;2023-04-06T06:20:09;4.47;;;2.08;;
48651;SDS011;34442;52.362;-1.302;2023-04-06T06:22:35;4.38;;;2.38;;
48651;SDS011;34442;52.362;-1.302;2023-04-06T06:25:01;4.78;;;2.78;;
48651;SDS011;34442;52.362;-1.302;2023-04-06T06:27:27;4.53;;;2.25;;
48651;SDS011;34442;52.362;-1.302;2023-04-06T06:29:52;4.85;;;2.40;;
48651;SDS011;34442;52.362;-1.302;2023-04-06T06:32:17;4.93;;;2.67;;
48651;SDS011;34442;52.362;-1.302;2023-04-06T06:34:43;4.93;;;2.78;;
48651;SDS011;34442;52.362;-1.302;2023-04-06T06:37:08;5.03;;;2.70;;
48651;SDS011;34442;52.362;-1.302;2023-04-06T06:39:34;5.95;;;3.15;;
48651;SDS011;34442;52.362;-1.302;2023-04-06T06:41:59;7.43;;;2.42;;
48651;SDS011;34442;52.362;-1.302;2023-04-06T06:44:26;5.40;;;2.97;;
48651;SDS011;34442;52.362;-1.302;2023-04-06T06:46:52;5.45;;;2.85;;
48651;SDS011;34442;52.362;-1.302;2023-04-06T06:49:18;5.28;;;2.55;;
48651;SDS011;34442;52.362;-1.302;2023-04-06T06:51:44;4.90;;;2.70;;
48651;SDS011;34442;52.362;-1.302;2023-04-06T06:54:11;5.03;;;2.35;;
48651;SDS011;34442;52.362;-1.302;2023-04-06T06:56:37;4.88;;;2.20;;
48651;SDS011;34442;52.362;-1.302;2023-04-06T06:59:03;5.43;;;2.28;;
48651;SDS011;34442;52.362;-1.302;2023-04-06T07:01:30;6.03;;;2.85;;
48651;SDS011;34442;52.362;-1.302;2023-04-06T07:03:57;4.55;;;2.22;;
48651;SDS011;34442;52.362;-1.302;2023-04-06T07:06:23;3.97;;;1.92;;
48651;SDS011;34442;52.362;-1.302;2023-04-06T07:08:48;5.10;;;2.47;;
48651;SDS011;34442;52.362;-1.302;2023-04-06T07:11:14;5.00;;;2.47;;
48651;SDS011;34442;52.362;-1.302;2023-04-06T07:13:39;3.58;;;1.98;;
48651;SDS011;34442;52.362;-1.302;2023-04-06T07:16:05;4.05;;;2.20;;
48651;SDS011;34442;52.362;-1.302;2023-04-06T07:18:33;4.50;;;2.35;;
48651;SDS011;34442;52.362;-1.302;2023-04-06T07:20:59;4.72;;;2.40;;
48651;SDS011;34442;52.362;-1.302;2023-04-06T07:23:24;3.85;;;1.50;;
48651;SDS011;34442;52.362;-1.302;2023-04-06T07:25:49;5.13;;;2.20;;
48651;SDS011;34442;52.362;-1.302;2023-04-06T07:28:17;4.20;;;2.10;;
48651;SDS011;34442;52.362;-1.302;2023-04-06T07:30:43;3.40;;;1.73;;
48651;SDS011;34442;52.362;-1.302;2023-04-06T07:33:08;3.38;;;1.70;;
48651;SDS011;34442;52.362;-1.302;2023-04-06T07:35:33;4.10;;;2.10;;
48651;SDS011;34442;52.362;-1.302;2023-04-06T07:38:01;2.92;;;1.50;;
48651;SDS011;34442;52.362;-1.302;2023-04-06T07:40:26;3.85;;;1.80;;
48651;SDS011;34442;52.362;-1.302;2023-04-06T07:42:52;3.80;;;1.92;;
48651;SDS011;34442;52.362;-1.302;2023-04-06T07:45:18;3.55;;;1.73;;
48651;SDS011;34442;52.362;-1.302;2023-04-06T07:47:43;3.63;;;1.70;;
48651;SDS011;34442;52.362;-1.302;2023-04-06T07:50:09;3.22;;;1.70;;
48651;SDS011;34442;52.362;-1.302;2023-04-06T07:52:35;2.58;;;1.30;;
48651;SDS011;34442;52.362;-1.302;2023-04-06T07:55:00;3.05;;;1.50;;
48651;SDS011;34442;52.362;-1.302;2023-04-06T07:57:26;3.00;;;1.60;;
48651;SDS011;34442;52.362;-1.302;2023-04-06T07:59:51;3.50;;;1.75;;
48651;SDS011;34442;52.362;-1.302;2023-04-06T08:02:17;2.53;;;1.33;;
48651;SDS011;34442;52.362;-1.302;2023-04-06T08:04:43;3.38;;;1.38;;
48651;SDS011;34442;52.362;-1.302;2023-04-06T08:07:08;2.42;;;1.30;;
48651;SDS011;34442;52.362;-1.302;2023-04-06T08:09:34;2.38;;;1.35;;
48651;SDS011;34442;52.362;-1.302;2023-04-06T08:12:00;2.30;;;1.23;;
48651;SDS011;34442;52.362;-1.302;2023-04-06T08:14:25;2.45;;;1.45;;
48651;SDS011;34442;52.362;-1.302;2023-04-06T08:16:51;2.85;;;1.15;;
48651;SDS011;34442;52.362;-1.302;2023-04-06T08:19:16;3.65;;;1.58;;
48651;SDS011;34442;52.362;-1.302;2023-04-06T08:21:43;3.00;;;1.67;;
48651;SDS011;34442;52.362;-1.302;2023-04-06T08:24:10;3.67;;;1.77;;
48651;SDS011;34442;52.362;-1.302;2023-04-06T08:26:35;3.50;;;1.70;;
48651;SDS011;34442;52.362;-1.302;2023-04-06T08:29:01;2.78;;;1.60;;
48651;SDS011;34442;52.362;-1.302;2023-04-06T08:31:26;2.63;;;1.52;;
48651;SDS011;34442;52.362;-1.302;2023-04-06T08:33:52;3.15;;;1.60;;
48651;SDS011;34442;52.362;-1.302;2023-04-06T08:36:17;3.35;;;1.80;;
48651;SDS011;34442;52.362;-1.302;2023-04-06T08:38:47;3.88;;;1.80;;
48651;SDS011;34442;52.362;-1.302;2023-04-06T08:41:14;3.08;;;1.52;;
48651;SDS011;34442;52.362;-1.302;2023-04-06T08:46:07;2.65;;;1.50;;
48651;SDS011;34442;52.362;-1.302;2023-04-06T08:48:33;2.72;;;1.45;;
48651;SDS011;34442;52.362;-1.302;2023-04-06T08:50:59;3.40;;;1.45;;
48651;SDS011;34442;52.362;-1.302;2023-04-06T08:53:26;2.75;;;1.42;;
48651;SDS011;34442;52.362;-1.302;2023-04-06T08:55:51;2.55;;;1.42;;
48651;SDS011;34442;52.362;-1.302;2023-04-06T08:58:17;2.70;;;1.40;;
48651;SDS011;34442;52.362;-1.302;2023-04-06T09:00:42;2.25;;;1.30;;
48651;SDS011;34442;52.362;-1.302;2023-04-06T09:03:08;2.58;;;1.45;;
48651;SDS011;34442;52.362;-1.302;2023-04-06T09:05:38;3.28;;;1.65;;
48651;SDS011;34442;52.362;-1.302;2023-04-06T09:08:03;3.72;;;1.92;;
48651;SDS011;34442;52.362;-1.302;2023-04-06T09:10:29;3.83;;;2.03;;
48651;SDS011;34442;52.362;-1.302;2023-04-06T09:13:07;3.92;;;1.80;;
48651;SDS011;34442;52.362;-1.302;2023-04-06T09:15:33;3.40;;;1.50;;
48651;SDS011;34442;52.362;-1.302;2023-04-06T09:18:00;3.17;;;1.73;;
48651;SDS011;34442;52.362;-1.302;2023-04-06T09:20:26;3.38;;;1.50;;
48651;SDS011;34442;52.362;-1.302;2023-04-06T09:22:53;3.40;;;1.65;;
48651;SDS011;34442;52.362;-1.302;2023-04-06T09:25:20;2.95;;;1.70;;
48651;SDS011;34442;52.362;-1.302;2023-04-06T09:27:59;2.85;;;1.70;;
48651;SDS011;34442;52.362;-1.302;2023-04-06T09:30:28;2.70;;;1.63;;
48651;SDS011;34442;52.362;-1.302;2023-04-06T09:32:56;3.78;;;1.95;;
48651;SDS011;34442;52.362;-1.302;2023-04-06T09:35:22;3.08;;;1.83;;
48651;SDS011;34442;52.362;-1.302;2023-04-06T09:37:49;3.13;;;1.52;;
48651;SDS011;34442;52.362;-1.302;2023-04-06T09:40:16;2.60;;;1.50;;
48651;SDS011;34442;52.362;-1.302;2023-04-06T09:42:47;3.35;;;1.42;;
48651;SDS011;34442;52.362;-1.302;2023-04-06T09:45:15;3.42;;;1.70;;
48651;SDS011;34442;52.362;-1.302;2023-04-06T09:47:42;4.20;;;1.90;;
48651;SDS011;34442;52.362;-1.302;2023-04-06T09:50:10;4.25;;;2.03;;
48651;SDS011;34442;52.362;-1.302;2023-04-06T09:52:39;2.90;;;1.52;;
48651;SDS011;34442;52.362;-1.302;2023-04-06T09:55:07;3.42;;;2.10;;
48651;SDS011;34442;52.362;-1.302;2023-04-06T09:57:46;3.55;;;1.52;;
48651;SDS011;34442;52.362;-1.302;2023-04-06T10:00:17;3.65;;;1.63;;
48651;SDS011;34442;52.362;-1.302;2023-04-06T10:08:11;4.22;;;1.80;;
48651;SDS011;34442;52.362;-1.302;2023-04-06T10:10:37;1.95;;;1.20;;
48651;SDS011;34442;52.362;-1.302;2023-04-06T10:13:06;2.92;;;1.60;;
48651;SDS011;34442;52.362;-1.302;2023-04-06T10:15:32;4.10;;;1.65;;
48651;SDS011;34442;52.362;-1.302;2023-04-06T10:17:58;4.38;;;2.30;;
48651;SDS011;34442;52.362;-1.302;2023-04-06T10:20:29;4.82;;;1.77;;
48651;SDS011;34442;52.362;-1.302;2023-04-06T10:23:13;2.63;;;1.40;;
48651;SDS011;34442;52.362;-1.302;2023-04-06T10:25:56;2.92;;;1.33;;
48651;SDS011;34442;52.362;-1.302;2023-04-06T10:28:23;3.17;;;1.65;;
48651;SDS011;34442;52.362;-1.302;2023-04-06T10:30:56;3.88;;;1.50;;
48651;SDS011;34442;52.362;-1.302;2023-04-06T10:33:22;3.65;;;1.80;;
48651;SDS011;34442;52.362;-1.302;2023-04-06T10:35:47;3.28;;;1.52;;
48651;SDS011;34442;52.362;-1.302;2023-04-06T10:38:13;4.00;;;1.75;;
48651;SDS011;34442;52.362;-1.302;2023-04-06T10:40:39;3.88;;;1.73;;
48651;SDS011;34442;52.362;-1.302;2023-04-06T10:43:10;2.10;;;1.27;;
48651;SDS011;34442;52.362;-1.302;2023-04-06T10:45:54;2.92;;;1.35;;
48651;SDS011;34442;52.362;-1.302;2023-04-06T10:48:21;2.17;;;1.30;;
48651;SDS011;34442;52.362;-1.302;2023-04-06T10:50:47;2.05;;;1.25;;
48651;SDS011;34442;52.362;-1.302;2023-04-06T10:53:23;4.03;;;1.50;;
48651;SDS011;34442;52.362;-1.302;2023-04-06T10:55:51;3.90;;;1.45;;
48651;SDS011;34442;52.362;-1.302;2023-04-06T10:58:18;3.10;;;1.52;;
48651;SDS011;34442;52.362;-1.302;2023-04-06T11:00:47;2.60;;;1.10;;
48651;SDS011;34442;52.362;-1.302;2023-04-06T11:03:13;3.17;;;1.40;;
48651;SDS011;34442;52.362;-1.302;2023-04-06T11:05:43;1.98;;;1.05;;
48651;SDS011;34442;52.362;-1.302;2023-04-06T11:08:29;2.35;;;1.17;;
48651;SDS011;34442;52.362;-1.302;2023-04-06T11:11:15;2.67;;;1.50;;
48651;SDS011;34442;52.362;-1.302;2023-04-06T11:13:46;2.08;;;1.10;;
48651;SDS011;34442;52.362;-1.302;2023-04-06T11:16:33;3.08;;;1.23;;
48651;SDS011;34442;52.362;-1.302;2023-04-06T11:19:00;2.00;;;1.13;;
48651;SDS011;34442;52.362;-1.302;2023-04-06T11:21:33;2.03;;;1.20;;
48651;SDS011;34442;52.362;-1.302;2023-04-06T11:26:47;1.63;;;1.23;;
48651;SDS011;34442;52.362;-1.302;2023-04-06T11:29:19;1.73;;;1.13;;
48651;SDS011;34442;52.362;-1.302;2023-04-06T11:31:47;2.95;;;1.33;;
48651;SDS011;34442;52.362;-1.302;2023-04-06T11:34:19;3.88;;;1.60;;
48651;SDS011;34442;52.362;-1.302;2023-04-06T11:36:47;2.92;;;1.45;;
48651;SDS011;34442;52.362;-1.302;2023-04-06T11:39:21;3.70;;;1.50;;
48651;SDS011;34442;52.362;-1.302;2023-04-06T11:41:52;3.03;;;1.63;;
48651;SDS011;34442;52.362;-1.302;2023-04-06T11:46:58;2.63;;;1.58;;
48651;SDS011;34442;52.362;-1.302;2023-04-06T11:49:27;2.60;;;1.55;;
48651;SDS011;34442;52.362;-1.302;2023-04-06T11:51:54;3.05;;;1.60;;
48651;SDS011;34442;52.362;-1.302;2023-04-06T11:54:32;1.42;;;1.00;;
48651;SDS011;34442;52.362;-1.302;2023-04-06T11:56:59;3.67;;;1.33;;
48651;SDS011;34442;52.362;-1.302;2023-04-06T11:59:25;4.15;;;1.40;;
48651;SDS011;34442;52.362;-1.302;2023-04-06T12:01:52;2.58;;;1.48;;
48651;SDS011;34442;52.362;-1.302;2023-04-06T12:04:18;1.83;;;1.10;;
48651;SDS011;34442;52.362;-1.302;2023-04-06T12:06:43;2.05;;;1.13;;
48651;SDS011;34442;52.362;-1.302;2023-04-06T12:09:09;3.50;;;1.30;;
48651;SDS011;34442;52.362;-1.302;2023-04-06T12:11:35;2.65;;;1.17;;
48651;SDS011;34442;52.362;-1.302;2023-04-06T12:14:00;2.92;;;1.10;;
48651;SDS011;34442;52.362;-1.302;2023-04-06T12:16:26;1.92;;;1.10;;
48651;SDS011;34442;52.362;-1.302;2023-04-06T12:18:52;2.35;;;1.10;;
48651;SDS011;34442;52.362;-1.302;2023-04-06T12:21:17;1.35;;;0.90;;
48651;SDS011;34442;52.362;-1.302;2023-04-06T12:23:43;2.42;;;0.90;;
48651;SDS011;34442;52.362;-1.302;2023-04-06T12:26:08;4.28;;;1.10;;
48651;SDS011;34442;52.362;-1.302;2023-04-06T12:28:33;1.42;;;0.85;;
48651;SDS011;34442;52.362;-1.302;2023-04-06T12:30:59;2.53;;;1.00;;
48651;SDS011;34442;52.362;-1.302;2023-04-06T12:33:25;1.30;;;0.80;;
48651;SDS011;34442;52.362;-1.302;2023-04-06T12:35:50;1.73;;;1.00;;
48651;SDS011;34442;52.362;-1.302;2023-04-06T12:38:16;1.23;;;0.85;;
48651;SDS011;34442;52.362;-1.302;2023-04-06T12:40:42;1.83;;;0.90;;
48651;SDS011;34442;52.362;-1.302;2023-04-06T12:43:07;2.00;;;0.82;;
48651;SDS011;34442;52.362;-1.302;2023-04-06T12:45:33;3.00;;;0.90;;
48651;SDS011;34442;52.362;-1.302;2023-04-06T12:47:59;1.67;;;0.82;;
48651;SDS011;34442;52.362;-1.302;2023-04-06T12:50:25;2.72;;;1.05;;
48651;SDS011;34442;52.362;-1.302;2023-04-06T12:52:51;1.80;;;1.00;;
48651;SDS011;34442;52.362;-1.302;2023-04-06T12:55:17;1.83;;;0.90;;
48651;SDS011;34442;52.362;-1.302;2023-04-06T12:57:42;2.25;;;0.95;;
48651;SDS011;34442;52.362;-1.302;2023-04-06T13:00:08;1.05;;;0.90;;
48651;SDS011;34442;52.362;-1.302;2023-04-06T13:02:33;1.63;;;1.02;;
48651;SDS011;34442;52.362;-1.302;2023-04-06T13:04:59;1.70;;;1.00;;
48651;SDS011;34442;52.362;-1.302;2023-04-06T13:07:25;1.88;;;1.02;;
48651;SDS011;34442;52.362;-1.302;2023-04-06T13:09:51;2.72;;;1.00;;
48651;SDS011;34442;52.362;-1.302;2023-04-06T13:12:16;2.15;;;1.13;;
48651;SDS011;34442;52.362;-1.302;2023-04-06T13:14:43;2.58;;;1.30;;
48651;SDS011;34442;52.362;-1.302;2023-04-06T13:17:08;4.35;;;1.40;;
48651;SDS011;34442;52.362;-1.302;2023-04-06T13:19:34;1.65;;;1.17;;
48651;SDS011;34442;52.362;-1.302;2023-04-06T13:21:59;1.95;;;1.20;;
48651;SDS011;34442;52.362;-1.302;2023-04-06T13:24:24;2.65;;;1.10;;
48651;SDS011;34442;52.362;-1.302;2023-04-06T13:26:52;1.00;;;0.90;;
48651;SDS011;34442;52.362;-1.302;2023-04-06T13:29:18;0.85;;;0.80;;
48651;SDS011;34442;52.362;-1.302;2023-04-06T13:31:43;3.10;;;0.90;;
48651;SDS011;34442;52.362;-1.302;2023-04-06T13:34:08;2.40;;;0.93;;
48651;SDS011;34442;52.362;-1.302;2023-04-06T13:36:34;0.85;;;0.70;;
48651;SDS011;34442;52.362;-1.302;2023-04-06T13:38:59;1.35;;;0.88;;
48651;SDS011;34442;52.362;-1.302;2023-04-06T13:41:25;4.38;;;1.02;;
48651;SDS011;34442;52.362;-1.302;2023-04-06T13:43:51;3.55;;;1.00;;
48651;SDS011;34442;52.362;-1.302;2023-04-06T13:46:17;2.30;;;0.90;;
48651;SDS011;34442;52.362;-1.302;2023-04-06T13:48:43;3.45;;;1.10;;
48651;SDS011;34442;52.362;-1.302;2023-04-06T13:51:09;1.52;;;0.73;;
48651;SDS011;34442;52.362;-1.302;2023-04-06T13:53:35;0.55;;;0.55;;
48651;SDS011;34442;52.362;-1.302;2023-04-06T13:56:01;1.45;;;0.77;;
48651;SDS011;34442;52.362;-1.302;2023-04-06T13:58:26;2.00;;;0.70;;
48651;SDS011;34442;52.362;-1.302;2023-04-06T14:00:52;1.88;;;0.75;;
48651;SDS011;34442;52.362;-1.302;2023-04-06T14:03:17;1.13;;;0.80;;
48651;SDS011;34442;52.362;-1.302;2023-04-06T14:05:44;0.45;;;0.45;;
48651;SDS011;34442;52.362;-1.302;2023-04-06T14:08:10;2.47;;;1.05;;
48651;SDS011;34442;52.362;-1.302;2023-04-06T14:10:39;1.70;;;0.98;;
48651;SDS011;34442;52.362;-1.302;2023-04-06T14:13:05;0.95;;;0.60;;
48651;SDS011;34442;52.362;-1.302;2023-04-06T14:15:31;1.50;;;0.90;;
48651;SDS011;34442;52.362;-1.302;2023-04-06T14:17:57;1.80;;;0.80;;
48651;SDS011;34442;52.362;-1.302;2023-04-06T14:20:22;2.42;;;0.90;;
48651;SDS011;34442;52.362;-1.302;2023-04-06T14:22:48;2.67;;;1.00;;
48651;SDS011;34442;52.362;-1.302;2023-04-06T14:25:14;1.02;;;0.70;;
48651;SDS011;34442;52.362;-1.302;2023-04-06T14:27:41;1.15;;;0.80;;
48651;SDS011;34442;52.362;-1.302;2023-04-06T14:30:07;0.82;;;0.65;;
48651;SDS011;34442;52.362;-1.302;2023-04-06T14:32:33;0.85;;;0.70;;
48651;SDS011;34442;52.362;-1.302;2023-04-06T14:35:00;1.60;;;0.70;;
48651;SDS011;34442;52.362;-1.302;2023-04-06T14:37:26;2.65;;;1.08;;
48651;SDS011;34442;52.362;-1.302;2023-04-06T14:39:51;1.92;;;0.80;;
48651;SDS011;34442;52.362;-1.302;2023-04-06T14:42:17;3.53;;;0.85;;